Time;durP1;ratioP1;P1;durP2;ratioP2;P2;SDS_P1;SDS_P2;PMS_P1;PMS_P2;Temp;Humidity;BMP_temperature;BMP_pressure;BME280_temperature;BME280_humidity;BME280_pressure;Samples;Min_cycle;Max_cycle;Signal;HPM_P1;HPM_P2
2023/11/27 00:01:03;;;;;;;1.42;0.80;;;21.20;55.80;;;;;;5036239;28;20100;-74
2023/11/27 00:03:28;;;;;;;1.63;0.93;;;21.20;55.90;;;;;;5017226;28;20029;-74
2023/11/27 00:05:54;;;;;;;1.70;1.00;;;21.20;55.80;;;;;;5035535;28;20018;-74
2023/11/27 00:08:20;;;;;;;1.13;0.80;;;21.20;55.90;;;;;;5035737;28;20484;-74
2023/11/27 00:10:45;;;;;;;1.48;0.80;;;21.20;55.90;;;;;;5036017;28;20112;-73
2023/11/27 00:13:11;;;;;;;1.83;0.90;;;21.20;55.90;;;;;;5032992;28;20032;-73
2023/11/27 00:15:36;;;;;;;1.40;0.77;;;21.10;55.90;;;;;;5037002;28;20548;-74
2023/11/27 00:18:02;;;;;;;2.13;0.90;;;21.20;56.00;;;;;;5036477;28;20199;-74
2023/11/27 00:20:28;;;;;;;1.45;0.70;;;21.10;55.90;;;;;;5034139;28;20094;-73
2023/11/27 00:22:53;;;;;;;1.75;1.02;;;21.10;56.00;;;;;;5036077;28;20040;-74
2023/11/27 00:25:19;;;;;;;1.42;0.80;;;21.10;56.00;;;;;;5035654;28;20112;-74
2023/11/27 00:27:45;;;;;;;1.40;0.80;;;21.10;56.00;;;;;;5015622;28;20037;-73
2023/11/27 00:30:13;;;;;;;1.52;0.70;;;21.00;56.50;;;;;;5036972;28;20485;-73
2023/11/27 00:32:38;;;;;;;1.77;0.70;;;21.00;56.00;;;;;;5034621;28;20017;-74
2023/11/27 00:35:04;;;;;;;1.83;0.90;;;21.00;56.00;;;;;;5034529;28;20567;-73
2023/11/27 00:37:30;;;;;;;1.02;0.70;;;21.00;56.10;;;;;;5035054;28;20524;-74
2023/11/27 00:39:55;;;;;;;1.30;0.90;;;21.00;56.60;;;;;;5036218;28;20025;-74
2023/11/27 00:42:21;;;;;;;1.00;0.75;;;20.90;56.10;;;;;;5015297;28;20472;-74
2023/11/27 00:44:47;;;;;;;1.10;0.85;;;21.00;56.10;;;;;;5018611;28;20029;-73
2023/11/27 00:47:12;;;;;;;1.42;0.90;;;20.90;56.10;;;;;;5038639;28;20030;-65
2023/11/27 00:49:38;;;;;;;0.93;0.70;;;20.90;56.10;;;;;;5034564;28;20029;-67
2023/11/27 00:52:04;;;;;;;1.60;0.93;;;20.90;56.10;;;;;;5017871;28;20497;-65
2023/11/27 00:54:30;;;;;;;2.13;0.90;;;20.90;56.10;;;;;;5032895;28;20092;-67
2023/11/27 00:56:55;;;;;;;0.82;0.70;;;20.90;56.20;;;;;;5035563;28;20118;-66
2023/11/27 00:59:21;;;;;;;1.75;0.82;;;20.80;56.20;;;;;;5034912;28;20473;-73
2023/11/27 01:01:46;;;;;;;1.10;0.77;;;20.90;56.20;;;;;;5038773;28;20025;-72
2023/11/27 01:04:12;;;;;;;1.08;0.70;;;20.80;56.20;;;;;;5036268;28;20257;-73
2023/11/27 01:06:38;;;;;;;1.08;0.80;;;20.80;56.20;;;;;;5021488;28;20035;-73
2023/11/27 01:09:06;;;;;;;0.95;0.70;;;20.80;56.20;;;;;;5021070;28;20037;-74
2023/11/27 01:11:32;;;;;;;1.63;0.90;;;20.80;56.30;;;;;;5038952;28;20021;-73
2023/11/27 01:13:57;;;;;;;0.75;0.60;;;20.70;56.30;;;;;;5039092;28;20031;-73
2023/11/27 01:16:25;;;;;;;1.67;0.80;;;20.80;56.30;;;;;;5040671;28;20531;-73
2023/11/27 01:18:50;;;;;;;1.67;0.80;;;20.70;56.30;;;;;;5037824;28;20438;-73
2023/11/27 01:21:16;;;;;;;1.27;0.80;;;20.70;56.30;;;;;;5038220;28;20074;-73
2023/11/27 01:23:41;;;;;;;1.95;0.95;;;20.70;56.30;;;;;;5038286;28;20075;-74
2023/11/27 01:26:07;;;;;;;0.85;0.75;;;20.70;56.40;;;;;;5036805;28;20461;-74
2023/11/27 01:28:33;;;;;;;1.27;0.80;;;20.60;56.30;;;;;;5020267;28;20029;-73
2023/11/27 01:30:59;;;;;;;1.50;0.80;;;20.60;56.40;;;;;;5038176;28;20032;-73
2023/11/27 01:33:25;;;;;;;1.98;0.80;;;20.60;56.40;;;;;;5039080;28;20025;-74
2023/11/27 01:35:50;;;;;;;1.42;0.77;;;20.60;56.40;;;;;;5018610;28;20094;-73
2023/11/27 01:38:16;;;;;;;1.38;0.88;;;20.60;56.40;;;;;;5039469;28;20017;-73
2023/11/27 01:40:41;;;;;;;1.05;0.75;;;20.60;56.40;;;;;;5036551;28;20040;-73
2023/11/27 01:43:14;;;;;;;1.55;0.80;;;20.60;56.40;;;;;;5038990;28;20479;-74
2023/11/27 01:45:40;;;;;;;1.38;0.80;;;20.60;56.40;;;;;;5037327;28;20025;-74
2023/11/27 01:48:06;;;;;;;1.20;0.75;;;20.60;56.50;;;;;;5037257;28;20047;-75
2023/11/27 01:50:33;;;;;;;1.15;0.80;;;20.60;56.50;;;;;;5036640;28;20456;-74
2023/11/27 01:53:00;;;;;;;1.67;0.82;;;20.50;56.40;;;;;;5038254;28;20108;-74
2023/11/27 01:55:28;;;;;;;1.98;0.75;;;20.50;56.40;;;;;;5035269;28;20036;-74
2023/11/27 01:57:54;;;;;;;1.17;0.90;;;20.50;56.50;;;;;;5036763;28;20025;-66
2023/11/27 02:00:22;;;;;;;1.13;0.85;;;20.50;56.50;;;;;;5036277;28;20809;-74
2023/11/27 02:02:49;;;;;;;1.17;0.80;;;20.50;56.50;;;;;;5036937;28;20443;-71
2023/11/27 02:05:16;;;;;;;1.17;0.85;;;20.50;56.50;;;;;;5037932;28;20029;-74
2023/11/27 02:07:42;;;;;;;1.08;0.75;;;20.40;56.50;;;;;;5038541;28;20028;-74
2023/11/27 02:10:08;;;;;;;0.90;0.70;;;20.40;56.50;;;;;;5036752;28;20067;-67
2023/11/27 02:12:34;;;;;;;1.15;0.75;;;20.40;56.60;;;;;;5037379;28;20037;-66
2023/11/27 02:15:00;;;;;;;0.70;0.70;;;20.40;56.60;;;;;;5037155;28;20021;-68
2023/11/27 02:17:26;;;;;;;1.50;0.90;;;20.40;56.60;;;;;;5036447;28;20017;-66
2023/11/27 02:19:51;;;;;;;1.27;0.90;;;20.40;56.60;;;;;;5018153;28;20480;-66
2023/11/27 02:22:17;;;;;;;1.27;0.80;;;20.40;56.60;;;;;;5036912;28;20032;-66
2023/11/27 02:24:43;;;;;;;1.50;0.90;;;20.40;56.60;;;;;;5037958;28;20025;-66
2023/11/27 02:27:08;;;;;;;1.00;0.70;;;20.40;56.60;;;;;;5037115;28;20033;-66
2023/11/27 02:29:34;;;;;;;1.33;0.75;;;20.30;56.60;;;;;;5038253;28;20089;-66
2023/11/27 02:32:04;;;;;;;1.40;0.70;;;20.30;56.60;;;;;;5037778;28;20034;-65
2023/11/27 02:34:30;;;;;;;1.63;0.80;;;20.30;56.60;;;;;;5034306;28;20036;-65
2023/11/27 02:36:56;;;;;;;1.15;0.77;;;20.30;56.60;;;;;;5019247;28;20389;-65
2023/11/27 02:39:21;;;;;;;0.93;0.70;;;20.30;56.60;;;;;;5037160;28;20109;-66
2023/11/27 02:41:47;;;;;;;0.80;0.80;;;20.30;56.70;;;;;;5038714;28;20436;-66
2023/11/27 02:44:14;;;;;;;0.95;0.70;;;20.30;56.70;;;;;;5035658;28;20132;-65
2023/11/27 02:46:41;;;;;;;1.02;0.70;;;20.30;56.70;;;;;;5021948;28;20342;-65
2023/11/27 02:49:07;;;;;;;1.15;0.75;;;20.30;56.70;;;;;;5037483;28;20098;-67
2023/11/27 02:51:39;;;;;;;1.20;0.65;;;20.30;56.70;;;;;;5036331;28;20050;-65
2023/11/27 02:54:05;;;;;;;1.00;0.80;;;20.20;56.70;;;;;;5034116;28;20090;-65
2023/11/27 02:56:31;;;;;;;1.00;0.60;;;20.30;56.80;;;;;;5035413;28;20472;-65
2023/11/27 02:58:56;;;;;;;1.38;0.80;;;20.20;56.70;;;;;;5036767;28;20021;-65
2023/11/27 03:01:26;;;;;;;0.68;0.60;;;20.20;56.80;;;;;;5018990;28;20996;-65
2023/11/27 03:03:52;;;;;;;0.70;0.60;;;20.20;56.80;;;;;;5035439;28;20720;-65
2023/11/27 03:06:18;;;;;;;0.98;0.73;;;20.20;56.80;;;;;;5019941;28;20423;-66
2023/11/27 03:08:44;;;;;;;0.95;0.63;;;20.20;56.80;;;;;;5036307;28;20084;-74
2023/11/27 03:11:13;;;;;;;1.00;0.63;;;20.20;56.80;;;;;;5018610;28;20025;-74
2023/11/27 03:13:41;;;;;;;0.73;0.60;;;20.20;56.80;;;;;;5035981;28;20021;-75
2023/11/27 03:16:07;;;;;;;1.17;0.68;;;20.20;56.80;;;;;;5037440;28;20483;-74
2023/11/27 03:18:33;;;;;;;1.48;0.75;;;20.20;56.80;;;;;;5035171;28;20167;-74
2023/11/27 03:20:58;;;;;;;1.30;0.70;;;20.20;56.90;;;;;;5035832;28;20067;-74
2023/11/27 03:23:24;;;;;;;0.80;0.60;;;20.20;56.90;;;;;;5017883;28;20029;-74
2023/11/27 03:25:50;;;;;;;0.68;0.60;;;20.10;56.90;;;;;;5039446;28;20626;-74
2023/11/27 03:28:16;;;;;;;0.63;0.60;;;20.10;56.90;;;;;;5036075;28;20025;-75
2023/11/27 03:30:43;;;;;;;0.90;0.65;;;20.20;56.90;;;;;;5035034;28;20500;-74
2023/11/27 03:33:09;;;;;;;0.65;0.50;;;20.10;56.90;;;;;;5034757;28;20081;-72
2023/11/27 03:35:34;;;;;;;0.65;0.57;;;20.10;56.90;;;;;;5037477;28;20028;-74
2023/11/27 03:38:00;;;;;;;0.70;0.60;;;20.10;56.90;;;;;;5034926;28;20361;-74
2023/11/27 03:40:25;;;;;;;1.00;0.70;;;20.10;57.00;;;;;;5038883;28;20115;-75
2023/11/27 03:42:51;;;;;;;0.80;0.68;;;20.10;57.00;;;;;;5035289;28;20120;-74
2023/11/27 03:45:17;;;;;;;1.08;0.60;;;20.10;57.00;;;;;;5037500;28;20042;-73
2023/11/27 03:47:43;;;;;;;0.95;0.70;;;20.10;57.00;;;;;;5037038;28;20112;-73
2023/11/27 03:50:10;;;;;;;0.98;0.60;;;20.10;57.10;;;;;;5034530;28;20032;-74
2023/11/27 03:52:36;;;;;;;1.25;0.70;;;20.00;57.10;;;;;;5036489;28;20025;-74
2023/11/27 03:55:02;;;;;;;0.88;0.60;;;20.00;57.10;;;;;;5035513;28;20369;-74
2023/11/27 03:57:28;;;;;;;1.15;0.75;;;20.00;57.10;;;;;;5034725;28;20021;-74
2023/11/27 03:59:54;;;;;;;0.63;0.52;;;20.00;57.10;;;;;;5015779;28;20044;-67
2023/11/27 04:02:20;;;;;;;0.60;0.52;;;20.00;57.10;;;;;;5035331;28;20066;-66
2023/11/27 04:04:46;;;;;;;0.80;0.57;;;20.00;57.20;;;;;;5035663;28;20452;-68
2023/11/27 04:07:12;;;;;;;0.82;0.60;;;20.00;57.20;;;;;;5034774;28;20030;-66
2023/11/27 04:09:37;;;;;;;1.13;0.68;;;19.90;57.20;;;;;;5035231;28;20031;-66
2023/11/27 04:12:05;;;;;;;0.95;0.73;;;19.90;57.20;;;;;;5034271;28;20033;-66
2023/11/27 04:14:31;;;;;;;1.10;0.90;;;19.90;57.30;;;;;;5034738;28;20537;-66
2023/11/27 04:16:57;;;;;;;0.60;0.60;;;19.90;57.30;;;;;;5037291;28;20078;-66
2023/11/27 04:19:22;;;;;;;0.90;0.60;;;19.90;57.30;;;;;;5032230;28;20030;-75
2023/11/27 04:21:48;;;;;;;0.65;0.55;;;19.90;57.40;;;;;;5038219;28;20029;-75
2023/11/27 04:24:14;;;;;;;0.60;0.50;;;19.80;57.30;;;;;;5033489;28;20049;-74
2023/11/27 04:26:40;;;;;;;0.57;0.55;;;19.90;57.90;;;;;;5035545;28;20116;-75
2023/11/27 04:29:05;;;;;;;0.95;0.70;;;19.80;57.40;;;;;;5032755;28;20061;-67
2023/11/27 04:31:32;;;;;;;0.60;0.60;;;19.80;57.40;;;;;;5034820;28;20439;-67
2023/11/27 04:33:58;;;;;;;0.70;0.60;;;19.80;57.40;;;;;;5034435;28;20040;-68
2023/11/27 04:36:24;;;;;;;0.65;0.60;;;19.80;57.40;;;;;;5038172;28;20515;-68
2023/11/27 04:38:49;;;;;;;0.82;0.60;;;19.80;57.50;;;;;;5038252;28;20018;-66
2023/11/27 04:41:16;;;;;;;0.68;0.68;;;19.80;57.50;;;;;;5038641;28;20026;-67
2023/11/27 04:43:42;;;;;;;0.70;0.60;;;19.80;57.50;;;;;;5040789;28;20021;-67
2023/11/27 04:46:07;;;;;;;0.60;0.60;;;19.80;57.50;;;;;;5036944;28;20120;-66
2023/11/27 04:48:36;;;;;;;0.70;0.60;;;19.80;57.50;;;;;;5020080;28;20433;-67
2023/11/27 04:51:02;;;;;;;0.63;0.60;;;19.80;57.50;;;;;;5038633;28;20025;-67
2023/11/27 04:53:29;;;;;;;0.50;0.50;;;19.70;57.50;;;;;;5037517;28;20050;-66
2023/11/27 04:55:55;;;;;;;0.50;0.50;;;19.70;57.50;;;;;;5038269;28;20103;-66
2023/11/27 04:58:21;;;;;;;0.70;0.60;;;19.80;57.60;;;;;;5037689;28;20063;-66
2023/11/27 05:00:47;;;;;;;1.05;0.60;;;19.70;57.50;;;;;;5020849;28;20496;-66
2023/11/27 05:03:13;;;;;;;0.93;0.70;;;19.70;57.50;;;;;;5019097;28;20053;-65
2023/11/27 05:05:38;;;;;;;0.60;0.52;;;19.70;57.50;;;;;;5037174;28;20029;-66
2023/11/27 05:08:04;;;;;;;0.75;0.70;;;19.70;57.60;;;;;;5038319;28;20040;-66
2023/11/27 05:10:30;;;;;;;0.85;0.60;;;19.70;57.60;;;;;;5019627;28;20034;-75
2023/11/27 05:12:55;;;;;;;0.70;0.70;;;19.70;57.60;;;;;;5036820;28;20017;-74
2023/11/27 05:15:21;;;;;;;1.40;0.60;;;19.70;57.60;;;;;;5038535;28;20040;-75
2023/11/27 05:17:49;;;;;;;0.85;0.70;;;19.70;57.70;;;;;;5037819;28;20077;-74
2023/11/27 05:20:15;;;;;;;0.65;0.60;;;19.70;57.70;;;;;;5037701;28;20103;-75
2023/11/27 05:22:41;;;;;;;0.73;0.50;;;19.70;57.70;;;;;;5020215;28;20499;-75
2023/11/27 05:25:07;;;;;;;0.50;0.47;;;19.70;57.70;;;;;;5039272;28;20025;-74
2023/11/27 05:27:33;;;;;;;0.98;0.70;;;19.70;57.80;;;;;;5038355;28;20029;-74
2023/11/27 05:29:58;;;;;;;1.40;0.88;;;19.70;57.80;;;;;;5037184;28;20105;-66
2023/11/27 05:32:24;;;;;;;0.52;0.52;;;19.70;57.80;;;;;;5036934;28;20479;-66
2023/11/27 05:34:50;;;;;;;0.60;0.60;;;19.70;57.80;;;;;;5037182;28;20028;-67
2023/11/27 05:37:15;;;;;;;0.47;0.47;;;19.70;57.80;;;;;;5038263;27;20029;-66
2023/11/27 05:39:41;;;;;;;0.77;0.60;;;19.60;57.90;;;;;;5038255;28;20418;-73
2023/11/27 05:42:11;;;;;;;0.57;0.57;;;19.70;57.90;;;;;;5039565;28;20078;-74
2023/11/27 05:44:38;;;;;;;0.50;0.40;;;19.60;57.90;;;;;;5037756;28;20071;-74
2023/11/27 05:47:04;;;;;;;0.85;0.50;;;19.60;57.90;;;;;;5035480;28;20026;-74
2023/11/27 05:49:33;;;;;;;0.73;0.57;;;19.60;57.90;;;;;;5036580;28;20033;-70
2023/11/27 05:51:59;;;;;;;0.60;0.60;;;19.60;58.00;;;;;;5037909;28;20051;-73
2023/11/27 05:54:24;;;;;;;0.50;0.50;;;19.60;58.00;;;;;;5038251;28;20034;-73
2023/11/27 05:56:50;;;;;;;1.08;0.68;;;19.60;58.00;;;;;;5038505;28;20025;-74
2023/11/27 05:59:17;;;;;;;0.90;0.63;;;19.60;58.00;;;;;;5037829;28;20480;-73
2023/11/27 06:01:43;;;;;;;1.17;0.70;;;19.60;58.50;;;;;;5027752;28;20025;-72
2023/11/27 06:04:08;;;;;;;0.82;0.63;;;19.60;58.00;;;;;;5039449;28;20037;-73
2023/11/27 06:06:34;;;;;;;0.70;0.60;;;19.60;58.00;;;;;;5019710;28;20033;-73
2023/11/27 06:09:00;;;;;;;0.80;0.60;;;19.60;58.00;;;;;;5020166;28;20116;-73
2023/11/27 06:11:25;;;;;;;0.80;0.63;;;19.60;58.00;;;;;;5037750;28;20025;-73
2023/11/27 06:13:51;;;;;;;0.80;0.60;;;19.60;58.00;;;;;;5036705;28;20456;-73
2023/11/27 06:16:17;;;;;;;0.90;0.68;;;19.60;58.10;;;;;;5037829;28;20027;-72
2023/11/27 06:18:42;;;;;;;0.70;0.50;;;19.60;58.10;;;;;;5037811;28;20489;-74
2023/11/27 06:21:11;;;;;;;0.93;0.60;;;19.60;58.20;;;;;;5036315;28;20123;-72
2023/11/27 06:23:36;;;;;;;0.70;0.70;;;19.60;58.20;;;;;;5037267;28;20032;-73
2023/11/27 06:26:02;;;;;;;1.10;0.65;;;19.60;58.20;;;;;;5036355;28;20037;-73
2023/11/27 06:28:28;;;;;;;1.10;0.57;;;19.60;58.20;;;;;;5039649;28;20791;-73
2023/11/27 06:30:54;;;;;;;0.98;0.70;;;19.60;58.20;;;;;;5037511;28;20037;-73
2023/11/27 06:33:20;;;;;;;0.60;0.50;;;19.60;58.20;;;;;;5034481;28;20031;-73
2023/11/27 06:35:46;;;;;;;0.60;0.60;;;19.60;58.20;;;;;;5034553;28;20485;-73
2023/11/27 06:38:12;;;;;;;1.10;0.60;;;19.60;58.20;;;;;;5019895;28;20433;-73
2023/11/27 06:40:39;;;;;;;0.63;0.60;;;19.60;58.20;;;;;;5037899;28;20033;-65
2023/11/27 06:43:05;;;;;;;1.02;0.70;;;19.50;58.20;;;;;;5019712;28;20491;-66
2023/11/27 06:45:34;;;;;;;0.85;0.60;;;19.50;58.20;;;;;;5019865;28;20025;-65
2023/11/27 06:48:00;;;;;;;1.85;0.80;;;19.60;58.20;;;;;;5039224;28;20029;-65
2023/11/27 06:50:26;;;;;;;0.80;0.70;;;19.50;58.70;;;;;;5036244;28;20032;-67
2023/11/27 06:52:51;;;;;;;1.50;0.70;;;19.50;58.20;;;;;;5021589;28;20032;-65
2023/11/27 06:55:17;;;;;;;1.30;0.80;;;19.60;58.20;;;;;;5019643;28;20078;-67
2023/11/27 06:57:42;;;;;;;1.40;0.80;;;19.60;58.30;;;;;;5036130;28;20029;-65
2023/11/27 07:00:10;;;;;;;1.88;0.82;;;19.50;58.30;;;;;;5038049;28;20502;-65
2023/11/27 07:02:36;;;;;;;1.55;0.70;;;19.50;58.20;;;;;;5036372;28;20033;-65
2023/11/27 07:05:05;;;;;;;1.40;0.70;;;19.50;58.20;;;;;;5037591;28;20037;-66
2023/11/27 07:07:30;;;;;;;1.23;0.70;;;19.50;58.20;;;;;;5017763;28;20026;-66
2023/11/27 07:09:56;;;;;;;1.00;0.70;;;19.50;58.30;;;;;;5033827;28;20033;-65
2023/11/27 07:12:22;;;;;;;1.35;0.70;;;19.50;58.30;;;;;;5020497;28;20052;-65
2023/11/27 07:14:48;;;;;;;1.48;0.70;;;19.50;58.30;;;;;;5019012;28;20380;-65
2023/11/27 07:17:15;;;;;;;2.58;1.00;;;19.50;58.30;;;;;;5036140;28;20542;-66
2023/11/27 07:19:41;;;;;;;2.35;0.80;;;19.50;58.30;;;;;;5017782;28;20385;-66
2023/11/27 07:22:07;;;;;;;1.67;0.75;;;19.50;58.20;;;;;;5036186;28;20032;-65
2023/11/27 07:24:32;;;;;;;1.75;0.80;;;19.50;58.30;;;;;;5036164;28;20032;-66
2023/11/27 07:26:58;;;;;;;1.25;0.60;;;19.50;58.30;;;;;;5036854;28;20033;-65
2023/11/27 07:29:24;;;;;;;1.27;0.80;;;19.50;58.30;;;;;;5019297;28;20094;-67
2023/11/27 07:31:49;;;;;;;2.67;0.90;;;19.50;58.30;;;;;;5037865;28;20025;-67
2023/11/27 07:34:15;;;;;;;1.30;0.80;;;19.50;58.30;;;;;;5034801;28;20078;-67
2023/11/27 07:36:41;;;;;;;1.23;0.90;;;19.50;58.30;;;;;;5017632;28;20029;-67
2023/11/27 07:39:07;;;;;;;2.38;0.90;;;19.50;58.30;;;;;;5035454;28;20081;-67
2023/11/27 07:41:34;;;;;;;1.88;0.85;;;19.50;58.30;;;;;;5019661;28;20025;-67
2023/11/27 07:44:00;;;;;;;1.83;0.90;;;19.50;58.30;;;;;;5035886;28;20112;-67
2023/11/27 07:46:26;;;;;;;1.88;0.80;;;19.50;58.30;;;;;;5035256;28;20202;-68
2023/11/27 07:48:51;;;;;;;1.08;0.70;;;19.50;58.20;;;;;;5034486;28;20378;-72
2023/11/27 07:51:17;;;;;;;1.35;0.82;;;19.50;58.30;;;;;;5033523;28;20025;-72
2023/11/27 07:53:42;;;;;;;2.55;1.10;;;19.50;58.30;;;;;;5037459;28;20729;-72
2023/11/27 07:56:08;;;;;;;1.33;0.80;;;19.50;58.70;;;;;;5037599;28;20033;-72
2023/11/27 07:58:36;;;;;;;2.28;0.82;;;19.50;58.20;;;;;;5037054;28;20033;-67
2023/11/27 08:01:02;;;;;;;2.25;0.80;;;19.50;58.20;;;;;;5036113;28;20212;-72
2023/11/27 08:03:28;;;;;;;1.45;0.82;;;19.50;58.20;;;;;;5036662;28;20507;-72
2023/11/27 08:05:53;;;;;;;1.67;0.90;;;19.50;58.70;;;;;;5017991;28;20215;-72
2023/11/27 08:08:19;;;;;;;1.58;0.90;;;19.50;58.20;;;;;;5037023;28;20334;-72
2023/11/27 08:10:46;;;;;;;1.27;0.80;;;19.50;58.20;;;;;;5039075;28;20120;-72
2023/11/27 08:13:12;;;;;;;1.67;0.90;;;19.50;58.20;;;;;;5039093;28;20073;-72
2023/11/27 08:15:38;;;;;;;1.67;0.85;;;19.50;58.20;;;;;;5039903;28;20025;-72
2023/11/27 08:18:05;;;;;;;1.60;0.80;;;19.50;58.20;;;;;;5039029;28;20030;-72
2023/11/27 08:20:32;;;;;;;1.83;1.00;;;19.50;58.20;;;;;;5036572;28;20389;-72
2023/11/27 08:22:59;;;;;;;1.83;0.80;;;19.50;58.70;;;;;;5038228;28;20029;-72
2023/11/27 08:25:25;;;;;;;1.90;0.90;;;19.50;58.20;;;;;;5040414;28;20484;-72
2023/11/27 08:27:52;;;;;;;2.85;1.10;;;19.50;58.20;;;;;;5037911;28;20030;-71
2023/11/27 08:30:19;;;;;;;1.20;0.77;;;19.50;58.10;;;;;;5041617;28;20052;-71
2023/11/27 08:32:46;;;;;;;2.30;1.02;;;19.50;58.20;;;;;;5039068;28;20469;-71
2023/11/27 08:35:11;;;;;;;1.85;0.80;;;19.50;58.10;;;;;;5038128;28;20021;-72
2023/11/27 08:37:39;;;;;;;1.15;0.85;;;19.50;58.10;;;;;;5028354;28;20110;-72
2023/11/27 08:40:06;;;;;;;2.25;0.88;;;19.50;58.10;;;;;;5039323;28;20028;-66
2023/11/27 08:42:34;;;;;;;1.50;0.90;;;19.50;58.20;;;;;;5020684;28;20484;-65
2023/11/27 08:45:10;;;;;;;1.70;0.88;;;19.50;58.10;;;;;;5037180;28;20102;-65
2023/11/27 08:47:39;;;;;;;1.45;0.90;;;19.50;58.10;;;;;;5035863;28;20036;-67
2023/11/27 08:50:07;;;;;;;1.58;0.80;;;19.50;58.10;;;;;;5039778;28;20060;-66
2023/11/27 08:52:34;;;;;;;1.98;1.00;;;19.40;58.10;;;;;;5039394;28;20104;-65
2023/11/27 08:55:00;;;;;;;1.15;0.80;;;19.40;58.10;;;;;;5022710;28;20017;-65
2023/11/27 08:57:26;;;;;;;2.17;0.90;;;19.50;58.10;;;;;;5022373;28;20485;-67
2023/11/27 08:59:51;;;;;;;1.90;0.90;;;19.50;58.10;;;;;;5019154;28;20021;-67
2023/11/27 09:02:17;;;;;;;1.80;0.90;;;19.50;58.10;;;;;;5038212;28;20029;-65
2023/11/27 09:04:43;;;;;;;1.35;0.88;;;19.40;58.10;;;;;;5037817;28;20051;-66
2023/11/27 09:07:11;;;;;;;2.20;0.98;;;19.40;58.10;;;;;;5036223;27;20044;-66
2023/11/27 09:09:37;;;;;;;1.73;0.80;;;19.40;58.10;;;;;;5022098;28;20615;-65
2023/11/27 09:12:03;;;;;;;1.90;0.90;;;19.40;58.10;;;;;;5038626;28;20329;-65
2023/11/27 09:14:29;;;;;;;2.13;1.00;;;19.40;58.10;;;;;;5040820;28;20472;-66
2023/11/27 09:16:54;;;;;;;2.35;0.90;;;19.40;58.10;;;;;;5019059;28;20358;-67
2023/11/27 09:19:20;;;;;;;1.65;0.90;;;19.40;58.10;;;;;;5022314;28;20083;-66
2023/11/27 09:21:46;;;;;;;2.17;1.00;;;19.40;58.10;;;;;;5036640;28;20059;-66
2023/11/27 09:24:11;;;;;;;1.25;0.80;;;19.40;58.10;;;;;;5039289;28;20040;-65
2023/11/27 09:26:37;;;;;;;1.50;0.95;;;19.40;58.10;;;;;;5036627;28;20072;-67
2023/11/27 09:29:03;;;;;;;1.65;0.80;;;19.40;58.10;;;;;;5035630;28;20033;-65
2023/11/27 09:31:29;;;;;;;1.85;0.90;;;19.40;58.10;;;;;;5038062;28;20021;-67
2023/11/27 09:33:54;;;;;;;1.27;0.82;;;19.40;58.10;;;;;;5019713;28;20480;-65
2023/11/27 09:36:20;;;;;;;1.95;0.90;;;19.40;58.10;;;;;;5037315;28;20032;-67
2023/11/27 09:38:47;;;;;;;1.92;1.00;;;19.40;58.10;;;;;;5028793;28;20029;-65
2023/11/27 09:41:13;;;;;;;1.85;0.90;;;19.40;58.10;;;;;;5039302;28;20188;-65
2023/11/27 09:43:39;;;;;;;1.15;0.80;;;19.40;58.10;;;;;;5021942;28;20025;-67
2023/11/27 09:46:16;;;;;;;1.60;0.80;;;19.40;58.10;;;;;;5039464;28;20036;-66
2023/11/27 09:48:44;;;;;;;1.17;0.80;;;19.40;58.10;;;;;;5019788;28;20033;-71
2023/11/27 09:51:13;;;;;;;2.67;1.10;;;19.40;58.10;;;;;;5019324;28;20147;-72
2023/11/27 09:53:49;;;;;;;1.80;0.98;;;19.40;58.10;;;;;;5034766;28;20476;-71
2023/11/27 09:56:14;;;;;;;1.00;0.80;;;19.40;58.10;;;;;;5038001;28;20548;-71
2023/11/27 09:58:43;;;;;;;1.75;0.98;;;19.40;58.10;;;;;;5037255;28;20029;-70
2023/11/27 10:01:12;;;;;;;0.87;0.70;;;19.40;58.10;;;;;;5036133;28;20033;-70
2023/11/27 10:03:42;;;;;;;2.47;1.10;;;19.40;58.10;;;;;;5036610;28;20032;-70
2023/11/27 10:06:09;;;;;;;1.40;0.90;;;19.40;58.20;;;;;;5038960;28;20029;-70
2023/11/27 10:08:35;;;;;;;1.70;0.90;;;19.40;58.20;;;;;;5035400;28;20041;-71
2023/11/27 10:11:01;;;;;;;2.10;1.00;;;19.40;58.20;;;;;;5038019;28;20116;-70
2023/11/27 10:13:37;;;;;;;1.67;0.90;;;19.40;58.10;;;;;;5036395;28;20025;-70
2023/11/27 10:16:09;;;;;;;1.10;0.80;;;19.40;58.20;;;;;;5018528;28;20025;-70
2023/11/27 10:18:35;;;;;;;2.15;0.98;;;19.40;58.20;;;;;;5036519;28;20085;-70
2023/11/27 10:21:08;;;;;;;2.28;0.90;;;19.30;58.10;;;;;;5035856;28;20516;-64
2023/11/27 10:23:35;;;;;;;2.67;0.95;;;19.40;58.10;;;;;;5038194;28;20033;-64
2023/11/27 10:26:03;;;;;;;1.92;1.00;;;19.30;58.10;;;;;;5019910;28;20052;-64
2023/11/27 10:28:41;;;;;;;1.52;0.90;;;19.40;58.10;;;;;;5039799;28;20036;-66
2023/11/27 10:31:08;;;;;;;2.15;1.00;;;19.30;58.10;;;;;;5039506;28;20026;-66
2023/11/27 10:33:35;;;;;;;1.58;1.00;;;19.30;58.10;;;;;;5036997;28;20048;-65
2023/11/27 10:36:01;;;;;;;1.60;0.93;;;19.30;58.10;;;;;;5037571;28;20017;-64
2023/11/27 10:38:28;;;;;;;1.70;0.95;;;19.30;58.10;;;;;;5036308;28;20500;-64
2023/11/27 10:40:55;;;;;;;1.20;0.80;;;19.30;58.10;;;;;;5019898;28;20034;-66
2023/11/27 10:43:22;;;;;;;1.33;0.80;;;19.30;58.20;;;;;;5041105;28;20057;-65
2023/11/27 10:45:52;;;;;;;2.20;0.98;;;19.30;58.20;;;;;;5037178;28;20033;-65
2023/11/27 10:48:19;;;;;;;1.45;1.00;;;19.30;58.10;;;;;;5019195;27;20059;-66
2023/11/27 10:50:48;;;;;;;1.20;0.90;;;19.30;58.20;;;;;;5038475;28;20519;-64
2023/11/27 10:53:19;;;;;;;1.60;0.93;;;19.30;58.10;;;;;;5035711;28;20534;-65
2023/11/27 10:55:47;;;;;;;1.20;0.80;;;19.30;58.20;;;;;;5037698;28;21626;-66
2023/11/27 10:58:14;;;;;;;1.75;1.00;;;19.30;58.20;;;;;;5034597;28;20021;-64
2023/11/27 11:00:39;;;;;;;1.50;0.90;;;19.30;58.20;;;;;;5039775;28;20066;-64
2023/11/27 11:03:23;;;;;;;1.38;0.90;;;19.30;58.20;;;;;;5036487;28;20089;-64
2023/11/27 11:05:52;;;;;;;1.60;0.90;;;19.30;58.20;;;;;;5018929;28;20437;-64
2023/11/27 11:08:26;;;;;;;1.52;0.90;;;19.30;58.20;;;;;;5037669;28;20029;-66
2023/11/27 11:11:01;;;;;;;1.35;1.00;;;19.30;58.20;;;;;;5038255;28;20026;-66
2023/11/27 11:13:27;;;;;;;0.75;0.68;;;19.30;58.20;;;;;;5037213;28;20021;-64
2023/11/27 11:16:00;;;;;;;1.92;1.00;;;19.30;58.20;;;;;;5035048;28;20425;-66
2023/11/27 11:19:00;;;;;;;1.95;0.90;;;19.30;58.20;;;;;;5018618;28;20077;-65
2023/11/27 11:21:41;;;;;;;1.58;0.88;;;19.30;58.20;;;;;;5038398;28;20026;-64
2023/11/27 11:24:12;;;;;;;1.45;1.00;;;19.30;58.20;;;;;;5019071;28;20478;-64
2023/11/27 11:27:17;;;;;;;1.35;0.90;;;19.30;58.20;;;;;;5037781;28;20029;-64
2023/11/27 11:29:44;;;;;;;1.55;0.95;;;19.30;58.20;;;;;;5040590;28;20044;-72
2023/11/27 11:32:19;;;;;;;1.58;0.90;;;19.30;58.20;;;;;;5017652;28;20031;-72
2023/11/27 11:34:51;;;;;;;2.45;0.95;;;19.20;58.60;;;;;;5037556;28;20498;-73
2023/11/27 11:37:18;;;;;;;1.90;1.00;;;19.30;58.20;;;;;;5035537;28;20025;-73
2023/11/27 11:39:52;;;;;;;1.60;0.90;;;19.30;58.20;;;;;;5017976;28;20040;-73
2023/11/27 11:42:32;;;;;;;1.58;1.00;;;19.30;58.20;;;;;;5017527;28;20032;-72
2023/11/27 11:45:27;;;;;;;;;;;19.30;58.20;;;;;;5035919;28;20050;-74
2023/11/27 11:47:58;;;;;;;1.25;0.88;;;19.20;58.20;;;;;;5025941;28;19912;-73
2023/11/27 11:50:32;;;;;;;2.15;1.00;;;19.20;58.10;;;;;;5034550;28;20071;-73
2023/11/27 11:53:04;;;;;;;1.20;0.80;;;19.20;58.10;;;;;;5035013;28;20544;-73
2023/11/27 11:55:33;;;;;;;1.63;0.90;;;19.20;58.10;;;;;;5033871;28;20365;-74
2023/11/27 11:58:17;;;;;;;1.52;0.90;;;19.20;58.10;;;;;;5034429;28;20140;-73
2023/11/27 12:00:43;;;;;;;1.48;1.00;;;19.20;58.10;;;;;;5034706;28;20060;-74
2023/11/27 12:03:15;;;;;;;1.48;0.80;;;19.30;58.20;;;;;;5034050;28;20365;-73
2023/11/27 12:05:53;;;;;;;1.23;0.80;;;19.20;58.10;;;;;;5034649;28;20101;-74
2023/11/27 12:08:23;;;;;;;1.20;0.80;;;19.20;58.10;;;;;;5034529;28;20073;-74
2023/11/27 12:10:51;;;;;;;1.83;0.98;;;19.20;58.10;;;;;;5036412;28;20370;-64
2023/11/27 12:13:21;;;;;;;1.23;0.90;;;19.20;58.10;;;;;;5020140;28;20025;-66
2023/11/27 12:15:57;;;;;;;1.55;0.90;;;19.20;58.10;;;;;;5018582;28;20452;-65
2023/11/27 12:18:25;;;;;;;1.50;0.80;;;19.20;58.10;;;;;;5036721;28;20104;-64
2023/11/27 12:20:52;;;;;;;1.50;1.00;;;19.20;58.10;;;;;;5035116;28;20048;-64
2023/11/27 12:23:18;;;;;;;2.35;0.90;;;19.20;58.10;;;;;;5035097;28;20396;-64
2023/11/27 12:25:44;;;;;;;1.40;0.85;;;19.20;58.10;;;;;;5017226;28;20037;-64
2023/11/27 12:28:11;;;;;;;1.70;0.95;;;19.20;58.00;;;;;;5036242;28;20037;-65
2023/11/27 12:30:38;;;;;;;1.65;0.95;;;19.20;58.10;;;;;;5026183;28;20040;-63
2023/11/27 12:33:04;;;;;;;1.33;0.70;;;19.20;58.00;;;;;;5018621;28;20030;-64
2023/11/27 12:35:34;;;;;;;1.67;0.90;;;19.20;58.10;;;;;;5035514;28;20093;-65
2023/11/27 12:38:01;;;;;;;;;;;19.20;58.00;;;;;;5034640;28;20032;-64
2023/11/27 12:40:33;;;;;;;1.65;0.90;;;19.20;58.00;;;;;;5017907;28;19909;-66
2023/11/27 12:42:59;;;;;;;1.77;0.85;;;19.20;58.00;;;;;;5034472;28;20125;-66
2023/11/27 12:45:27;;;;;;;1.25;0.90;;;19.20;58.00;;;;;;5035217;28;20036;-66
2023/11/27 12:47:55;;;;;;;1.67;0.98;;;19.20;58.00;;;;;;5034813;28;20411;-67